Time;durP1;ratioP1;P1;durP2;ratioP2;P2;SDS_P1;SDS_P2;PMS_P1;PMS_P2;Temp;Humidity;BMP_temperature;BMP_pressure;BME280_temperature;BME280_humidity;BME280_pressure;Samples;Min_cycle;Max_cycle;Signal;HPM_P1;HPM_P2
2022/04/28 00:00:16;;;;;;;;;3.50;2.50;;;;;8.54;65.67;-18708.38;5023122;28;11339;-68
2022/04/28 00:02:43;;;;;;;;;2.75;2.00;;;;;8.52;65.46;-18707.78;5021145;28;11400;-68
2022/04/28 00:05:10;;;;;;;;;5.50;2.25;;;;;8.46;65.58;-18706.13;5023246;28;10720;-69
2022/04/28 00:07:38;;;;;;;;;3.00;3.00;;;;;8.48;65.74;-18706.72;5021045;28;11200;-68
2022/04/28 00:10:06;;;;;;;;;1.50;1.50;;;;;8.50;65.76;-18707.31;5023129;28;10620;-68
2022/04/28 00:12:33;;;;;;;;;2.00;2.00;;;;;8.49;65.35;-18707.03;5017831;28;10522;-69
2022/04/28 00:15:00;;;;;;;;;8.75;3.75;;;;;8.52;65.56;-18707.94;5015544;28;10660;-69
2022/04/28 00:17:27;;;;;;;;;2.75;2.50;;;;;8.49;65.19;-18707.03;5026587;28;10870;-70
2022/04/28 00:19:54;;;;;;;;;2.00;2.00;;;;;8.49;65.44;-18707.03;5025357;28;10642;-71
2022/04/28 00:22:21;;;;;;;;;3.75;3.75;;;;;8.55;65.02;-18708.84;5025385;28;10675;-68
2022/04/28 00:24:48;;;;;;;;;2.00;0.50;;;;;8.53;64.98;-18708.22;5014159;28;10736;-70
2022/04/28 00:27:14;;;;;;;;;2.00;1.00;;;;;8.52;64.84;-18707.78;5020734;28;10556;-70
2022/04/28 00:29:40;;;;;;;;;1.25;1.00;;;;;8.52;65.19;-18707.94;5009334;28;10824;-70
2022/04/28 00:32:08;;;;;;;;;1.75;1.75;;;;;8.46;65.13;-18705.97;4999653;28;10641;-70
2022/04/28 00:34:35;;;;;;;;;6.25;2.50;;;;;8.39;65.83;-18703.84;5019578;28;10683;-68
2022/04/28 00:37:02;;;;;;;;;4.00;3.75;;;;;8.41;65.50;-18704.44;5029002;28;10756;-69
2022/04/28 00:39:29;;;;;;;;;5.50;2.25;;;;;8.38;65.73;-18703.69;5010823;28;11485;-69
2022/04/28 00:41:55;;;;;;;;;2.00;2.00;;;;;8.52;64.85;-18707.94;5011275;28;11022;-69
2022/04/28 00:44:22;;;;;;;;;2.00;2.00;;;;;8.51;65.46;-18707.47;5023842;28;10803;-69
2022/04/28 00:46:48;;;;;;;;;1.00;1.00;;;;;8.51;65.64;-18707.63;5006079;28;10543;-70
2022/04/28 00:52:01;;;;;;;;;4.50;4.25;;;;;8.40;66.00;-18704.16;5006760;28;10635;-70
2022/04/28 00:54:33;;;;;;;;;0.00;0.00;;;;;8.39;66.03;-18704.00;5027220;28;10749;-70
2022/04/28 00:57:01;;;;;;;;;1.50;1.50;;;;;8.36;66.13;-18703.09;5007604;28;10454;-70
2022/04/28 00:59:29;;;;;;;;;6.00;4.50;;;;;8.36;66.54;-18702.94;5017574;28;10820;-70
2022/04/28 01:01:55;;;;;;;;;4.75;2.00;;;;;8.36;66.65;-18703.09;5005974;28;10737;-70
2022/04/28 01:04:22;;;;;;;;;1.75;1.75;;;;;8.38;66.29;-18703.69;4999929;28;10641;-70
2022/04/28 01:06:51;;;;;;;;;2.50;2.25;;;;;8.36;66.74;-18703.09;5011746;28;10709;-69
2022/04/28 01:09:18;;;;;;;;;3.25;3.25;;;;;8.33;66.95;-18702.19;5008833;28;10660;-69
2022/04/28 01:11:44;;;;;;;;;4.00;2.25;;;;;8.28;67.16;-18700.81;5027862;28;10860;-70
2022/04/28 01:14:19;;;;;;;;;2.00;1.00;;;;;8.32;67.12;-18702.03;5021035;28;10724;-69
2022/04/28 01:16:50;;;;;;;;;1.00;1.00;;;;;8.38;67.47;-18703.69;5013326;28;10800;-70
2022/04/28 01:19:16;;;;;;;;;5.00;5.00;;;;;8.35;67.49;-18702.63;5014734;28;11541;-70
2022/04/28 01:21:43;;;;;;;;;6.75;1.50;;;;;8.31;67.83;-18701.72;5025035;28;10743;-70
2022/04/28 01:24:14;;;;;;;;;4.25;2.50;;;;;8.35;68.14;-18702.78;5017313;28;10520;-69
2022/04/28 01:26:43;;;;;;;;;1.50;1.50;;;;;8.37;68.14;-18703.25;5023159;28;10883;-70
2022/04/28 01:29:10;;;;;;;;;4.25;4.00;;;;;8.25;68.67;-18699.91;5009873;28;10687;-70
2022/04/28 01:31:37;;;;;;;;;3.00;3.00;;;;;8.18;69.04;-18697.66;5013290;28;10785;-70
2022/04/28 01:34:06;;;;;;;;;5.00;5.00;;;;;8.11;69.55;-18695.53;5009350;28;10734;-69
2022/04/28 01:36:33;;;;;;;;;4.75;4.75;;;;;8.11;70.17;-18695.53;4994310;28;10851;-70
2022/04/28 01:39:00;;;;;;;;;3.25;1.75;;;;;8.09;70.21;-18694.94;5011174;28;10971;-70
2022/04/28 01:41:28;;;;;;;;;3.00;2.00;;;;;8.07;70.47;-18694.47;5007787;28;10640;-70
2022/04/28 01:43:56;;;;;;;;;3.50;3.50;;;;;7.96;70.84;-18691.31;5024684;28;10731;-70
2022/04/28 01:46:23;;;;;;;;;2.00;2.00;;;;;7.87;71.50;-18688.59;5010260;28;10859;-69
2022/04/28 01:49:28;;;;;;;;;1.75;1.75;;;;;7.83;71.86;-18687.38;5007042;28;10579;-70
2022/04/28 01:55:17;;;;;;;;;2.00;2.00;;;;;7.72;72.15;-18684.22;5032934;28;10866;-70
2022/04/28 01:58:02;;;;;;;;;4.00;4.00;;;;;7.70;72.99;-18683.44;5027071;28;10740;-70
2022/04/28 02:00:41;;;;;;;;;4.00;4.00;;;;;7.66;73.06;-18682.25;5018685;28;10933;-70
2022/04/28 02:03:11;;;;;;;;;4.00;4.00;;;;;7.61;73.69;-18680.72;5010522;28;10770;-70
2022/04/28 02:05:39;;;;;;;;;6.00;6.00;;;;;7.59;73.68;-18680.28;5013324;28;11525;-69
2022/04/28 02:08:07;;;;;;;;;5.50;5.50;;;;;7.54;73.60;-18678.63;5003180;28;11952;-70
2022/04/28 02:10:34;;;;;;;;;5.25;5.00;;;;;7.49;73.87;-18677.09;5014289;28;10814;-70
2022/04/28 02:13:03;;;;;;;;;5.00;4.00;;;;;7.41;74.29;-18674.84;5014340;28;10839;-70
2022/04/28 02:15:33;;;;;;;;;5.75;5.25;;;;;7.40;74.55;-18674.69;5029552;28;11678;-70
2022/04/28 02:18:28;;;;;;;;;6.00;6.00;;;;;7.39;74.73;-18674.38;5025601;28;10954;-69
2022/04/28 02:20:54;;;;;;;;;6.50;5.75;;;;;7.36;74.96;-18673.47;5008077;28;11106;-70
2022/04/28 02:23:22;;;;;;;;;3.00;3.00;;;;;7.37;75.00;-18673.63;5009491;28;11066;-70
2022/04/28 02:25:48;;;;;;;;;3.00;3.00;;;;;7.39;75.06;-18674.22;5028373;28;10905;-70
2022/04/28 02:28:17;;;;;;;;;6.00;6.00;;;;;7.38;75.39;-18674.09;5005673;28;10909;-70
2022/04/28 02:30:43;;;;;;;;;6.00;6.00;;;;;7.38;75.57;-18673.94;5005819;28;11066;-69
2022/04/28 02:33:12;;;;;;;;;4.50;3.75;;;;;7.37;75.66;-18673.63;5010955;28;11083;-70
2022/04/28 02:36:04;;;;;;;;;6.50;6.25;;;;;7.33;75.89;-18672.56;5017682;28;11682;-69
2022/04/28 02:38:35;;;;;;;;;5.75;4.25;;;;;7.32;75.92;-18672.13;5006590;28;11174;-69
2022/04/28 02:41:04;;;;;;;;;4.75;3.50;;;;;7.27;76.07;-18670.75;5021606;28;10906;-69
2022/04/28 02:43:31;;;;;;;;;7.25;6.00;;;;;7.21;76.17;-18668.78;5012243;28;10970;-69
2022/04/28 02:46:08;;;;;;;;;3.75;3.75;;;;;7.29;76.27;-18671.22;5003640;28;11086;-69
2022/04/28 02:48:53;;;;;;;;;3.50;3.25;;;;;7.23;76.18;-18669.56;5015843;28;10983;-70
2022/04/28 02:51:21;;;;;;;;;2.25;2.25;;;;;7.22;76.58;-18669.09;5003985;28;10916;-69
2022/04/28 02:53:47;;;;;;;;;2.50;2.50;;;;;7.19;76.77;-18668.34;5020612;28;11046;-69
2022/04/28 02:56:14;;;;;;;;;5.50;4.50;;;;;7.17;76.68;-18667.59;5008427;28;10776;-69
2022/04/28 02:58:40;;;;;;;;;4.75;4.75;;;;;7.13;77.13;-18666.38;5029561;28;10910;-69
2022/04/28 03:01:08;;;;;;;;;7.25;5.50;;;;;7.15;77.48;-18666.97;4989584;28;10921;-69
2022/04/28 03:03:37;;;;;;;;;0.75;0.75;;;;;7.15;77.39;-18667.13;5004884;28;10993;-69
2022/04/28 03:11:41;;;;;;;;;5.00;5.00;;;;;7.14;77.41;-18666.81;5011902;28;11216;-70
2022/04/28 03:14:09;;;;;;;;;6.75;4.75;;;;;7.05;77.38;-18664.25;5008468;28;10908;-69
2022/04/28 03:16:35;;;;;;;;;4.50;4.50;;;;;7.06;77.61;-18664.56;5007977;28;11149;-69
2022/04/28 03:19:06;;;;;;;;;7.25;6.00;;;;;7.03;77.67;-18663.66;5003764;28;10901;-69
2022/04/28 03:21:34;;;;;;;;;2.00;2.00;;;;;7.07;78.13;-18664.88;5007975;28;10964;-69
2022/04/28 03:24:02;;;;;;;;;8.75;3.25;;;;;7.09;77.79;-18665.47;5008471;28;11483;-69
2022/04/28 03:26:30;;;;;;;;;6.00;6.00;;;;;7.12;77.53;-18666.22;5009718;28;11064;-69
2022/04/28 03:28:57;;;;;;;;;5.50;5.50;;;;;7.12;77.41;-18666.22;5003659;28;11155;-70
2022/04/28 03:31:25;;;;;;;;;4.00;4.00;;;;;7.09;77.40;-18665.31;5003460;28;11005;-69
2022/04/28 03:34:15;;;;;;;;;5.00;5.00;;;;;7.14;77.56;-18666.69;5016788;28;11061;-69
2022/04/28 03:36:51;;;;;;;;;5.25;3.50;;;;;7.18;77.25;-18668.03;5004705;28;10981;-68
2022/04/28 03:39:21;;;;;;;;;6.25;3.00;;;;;7.13;76.97;-18666.53;5006412;28;10840;-69
2022/04/28 03:41:48;;;;;;;;;5.00;5.00;;;;;7.13;76.80;-18666.53;5029066;28;10822;-69
2022/04/28 03:44:14;;;;;;;;;5.00;5.00;;;;;7.14;77.00;-18666.81;5009293;28;10916;-68
2022/04/28 03:46:42;;;;;;;;;3.00;2.50;;;;;7.14;76.90;-18666.69;5025488;28;11774;-68
2022/04/28 03:49:10;;;;;;;;;5.00;3.25;;;;;7.17;76.91;-18667.59;5006507;28;10935;-70
2022/04/28 03:51:36;;;;;;;;;6.25;3.75;;;;;7.17;76.55;-18667.72;5018440;28;10890;-69
2022/04/28 03:54:03;;;;;;;;;5.25;5.25;;;;;7.16;76.38;-18667.28;5029144;28;11057;-69
2022/04/28 03:56:33;;;;;;;;;5.75;4.25;;;;;7.16;76.44;-18667.44;5008663;28;10966;-69
2022/04/28 03:59:05;;;;;;;;;12.50;6.50;;;;;7.20;76.33;-18668.50;5022098;28;11015;-70
2022/04/28 04:01:51;;;;;;;;;6.75;5.00;;;;;7.24;76.53;-18669.69;4997902;28;11065;-69
2022/04/28 04:04:19;;;;;;;;;5.25;4.00;;;;;7.23;76.48;-18669.56;5010795;28;10965;-69
2022/04/28 04:06:52;;;;;;;;;6.25;3.00;;;;;7.27;76.25;-18670.75;5016856;28;11060;-69
2022/04/28 04:09:47;;;;;;;;;7.75;3.00;;;;;7.23;76.25;-18669.56;5023259;28;10995;-68
2022/04/28 04:12:31;;;;;;;;;2.00;2.00;;;;;7.22;76.26;-18669.25;5009729;28;10937;-69
2022/04/28 04:15:12;;;;;;;;;6.25;4.25;;;;;7.22;76.29;-18669.25;5029433;28;11047;-69
2022/04/28 04:17:59;;;;;;;;;5.75;4.50;;;;;7.28;75.96;-18670.91;5011926;28;11045;-69
2022/04/28 04:20:34;;;;;;;;;6.00;4.00;;;;;7.31;75.88;-18671.97;5006311;28;11007;-70
2022/04/28 04:23:04;;;;;;;;;3.25;3.25;;;;;7.32;75.59;-18672.13;5005862;28;11029;-69
2022/04/28 04:25:30;;;;;;;;;2.25;2.25;;;;;7.32;75.39;-18672.28;5007224;28;10903;-70
2022/04/28 04:28:02;;;;;;;;;3.50;3.50;;;;;7.37;75.00;-18673.63;5012898;28;10973;-69
2022/04/28 04:34:08;;;;;;;;;3.75;3.75;;;;;7.48;73.32;-18676.81;5013671;28;10922;-72
2022/04/28 04:36:35;;;;;;;;;3.75;3.00;;;;;7.54;73.28;-18678.63;5020373;28;10843;-69
2022/04/28 04:39:02;;;;;;;;;4.25;4.25;;;;;7.54;73.26;-18678.63;5003859;28;11153;-70
2022/04/28 04:41:34;;;;;;;;;5.50;3.25;;;;;7.56;73.15;-18679.22;5004383;28;10899;-69
2022/04/28 04:44:02;;;;;;;;;7.75;7.75;;;;;7.59;73.07;-18680.28;5030626;28;11066;-69
2022/04/28 04:46:28;;;;;;;;;5.25;5.25;;;;;7.56;73.17;-18679.38;5030174;28;11172;-70
2022/04/28 04:49:13;;;;;;;;;4.75;4.75;;;;;7.63;73.34;-18681.34;5014914;28;10828;-69
2022/04/28 04:51:40;;;;;;;;;6.00;5.50;;;;;7.64;73.54;-18681.78;5015206;28;10752;-69
2022/04/28 04:54:13;;;;;;;;;4.75;4.75;;;;;7.62;73.41;-18681.19;5016752;28;10997;-70
2022/04/28 04:56:40;;;;;;;;;6.00;4.00;;;;;7.69;73.33;-18683.31;5030123;28;10963;-69
2022/04/28 04:59:07;;;;;;;;;5.00;5.00;;;;;7.74;72.93;-18684.50;5009345;28;11028;-70
2022/04/28 05:01:33;;;;;;;;;5.00;4.00;;;;;7.74;73.34;-18684.50;5005185;28;10872;-70
2022/04/28 05:04:19;;;;;;;;;12.25;8.00;;;;;7.77;73.15;-18685.41;5026989;28;10752;-69
2022/04/28 05:07:04;;;;;;;;;3.50;3.00;;;;;7.79;73.53;-18686.03;5016700;28;10780;-67
2022/04/28 05:09:31;;;;;;;;;5.00;5.00;;;;;7.75;73.43;-18684.97;5010534;28;10769;-70
2022/04/28 05:11:58;;;;;;;;;10.00;8.50;;;;;7.77;73.28;-18685.56;5032113;28;10911;-68
2022/04/28 05:14:33;;;;;;;;;8.00;6.00;;;;;7.83;73.55;-18687.38;5033486;28;10857;-70
2022/04/28 05:17:02;;;;;;;;;6.00;6.00;;;;;7.79;73.13;-18686.16;5005510;28;10993;-68
2022/04/28 05:19:39;;;;;;;;;6.25;5.25;;;;;7.78;73.35;-18685.72;5022846;28;10812;-69
2022/04/28 05:22:38;;;;;;;;;3.00;3.00;;;;;7.96;73.40;-18691.16;5023037;28;10827;-69
2022/04/28 05:25:23;;;;;;;;;5.00;4.00;;;;;7.97;73.58;-18691.63;5028064;28;10907;-69
2022/04/28 05:28:26;;;;;;;;;8.25;6.75;;;;;7.96;73.50;-18691.31;5018174;23;11532;-71
2022/04/28 05:31:11;;;;;;;;;5.25;4.25;;;;;8.00;73.01;-18692.50;5026036;28;10924;-70
2022/04/28 05:34:03;;;;;;;;;9.75;9.75;;;;;7.84;73.82;-18687.69;4993353;28;10828;-69
2022/04/28 05:36:37;;;;;;;;;10.25;9.25;;;;;7.84;73.01;-18687.53;5021534;28;11087;-70
2022/04/28 05:39:04;;;;;;;;;6.00;6.00;;;;;7.90;72.76;-18689.34;5012982;28;11046;-71
2022/04/28 05:41:31;;;;;;;;;7.50;7.00;;;;;8.04;72.57;-18693.56;5009797;28;11023;-70
2022/04/28 05:46:43;;;;;;;;;7.00;7.00;;;;;8.03;71.83;-18693.28;5004597;28;11025;-71
2022/04/28 05:49:10;;;;;;;;;6.00;4.00;;;;;8.17;71.41;-18697.50;4986908;28;11034;-70
2022/04/28 05:51:40;;;;;;;;;7.50;6.75;;;;;8.23;72.27;-18699.16;4985057;28;10871;-70
2022/04/28 05:54:10;;;;;;;;;4.00;4.00;;;;;8.29;71.80;-18700.97;4990200;28;10938;-70
2022/04/28 05:56:38;;;;;;;;;7.25;5.75;;;;;8.34;72.07;-18702.50;5008307;28;10827;-70
2022/04/28 05:59:10;;;;;;;;;5.00;4.00;;;;;8.37;71.85;-18703.41;4985708;28;11082;-70
2022/04/28 06:01:46;;;;;;;;;6.00;5.00;;;;;8.37;71.41;-18703.25;4996704;28;10808;-70
2022/04/28 06:04:18;;;;;;;;;12.00;10.00;;;;;8.43;71.18;-18705.06;5001256;28;10786;-70
2022/04/28 06:06:47;;;;;;;;;8.25;5.25;;;;;8.58;70.95;-18709.75;4991684;28;11005;-70
2022/04/28 06:09:36;;;;;;;;;6.50;5.00;;;;;8.57;70.76;-18709.28;5004254;28;10879;-71
2022/04/28 06:12:04;;;;;;;;;7.00;7.00;;;;;8.56;70.29;-18709.13;4986787;28;10788;-70
2022/04/28 06:14:54;;;;;;;;;8.00;6.75;;;;;8.47;70.00;-18706.41;5000498;28;10999;-70
2022/04/28 06:17:37;;;;;;;;;7.00;5.25;;;;;8.56;70.06;-18709.13;4987757;28;10824;-70
2022/04/28 06:20:07;;;;;;;;;7.50;6.25;;;;;8.58;69.58;-18709.75;4995109;28;10701;-71
2022/04/28 06:22:48;;;;;;;;;5.25;5.00;;;;;8.52;69.59;-18707.78;4993181;28;10955;-71
2022/04/28 06:25:15;;;;;;;;;10.50;7.00;;;;;8.55;68.94;-18708.69;4992888;28;10893;-71
2022/04/28 06:27:45;;;;;;;;;6.50;6.50;;;;;8.49;68.58;-18706.88;5007054;28;11000;-70
2022/04/28 06:30:13;;;;;;;;;7.00;7.00;;;;;8.54;68.70;-18708.53;4995714;28;10788;-71
2022/04/28 06:32:41;;;;;;;;;8.50;7.75;;;;;8.56;68.91;-18708.97;4992315;28;10864;-71
2022/04/28 06:35:28;;;;;;;;;9.00;5.00;;;;;8.61;68.45;-18710.50;4988513;28;11065;-70
2022/04/28 06:37:54;;;;;;;;;7.25;7.25;;;;;8.60;68.72;-18710.34;4993164;28;10804;-72
2022/04/28 06:40:22;;;;;;;;;9.75;9.75;;;;;8.34;68.69;-18702.50;4990345;28;11037;-71
2022/04/28 06:42:52;;;;;;;;;6.50;6.50;;;;;8.43;68.66;-18705.22;4977390;28;11033;-72
2022/04/28 06:45:22;;;;;;;;;6.25;5.50;;;;;8.42;68.79;-18704.91;4997553;28;10959;-71
2022/04/28 06:48:07;;;;;;;;;13.75;11.75;;;;;8.22;68.53;-18698.88;4999283;28;10873;-71
2022/04/28 06:50:40;;;;;;;;;7.00;7.00;;;;;8.30;68.71;-18701.28;5003866;28;11178;-72
2022/04/28 06:53:29;;;;;;;;;7.75;7.75;;;;;8.41;68.88;-18704.59;4977271;28;11144;-69
2022/04/28 06:56:00;;;;;;;;;8.50;7.00;;;;;8.44;69.01;-18705.38;4984483;28;10841;-72
2022/04/28 06:58:30;;;;;;;;;9.00;6.00;;;;;8.61;69.10;-18710.50;4994252;28;10855;-70
2022/04/28 07:01:02;;;;;;;;;5.00;5.00;;;;;8.66;68.39;-18712.00;4984898;28;11669;-70
2022/04/28 07:03:30;;;;;;;;;6.00;6.00;;;;;8.37;68.27;-18703.25;5000286;28;11045;-69
2022/04/28 07:05:57;;;;;;;;;8.00;8.00;;;;;8.53;68.68;-18708.22;4989210;28;10855;-69
2022/04/28 07:08:23;;;;;;;;;10.50;9.25;;;;;8.76;70.53;-18715.03;4989300;28;11055;-70
2022/04/28 07:10:50;;;;;;;;;9.00;9.00;;;;;8.78;68.86;-18715.47;4987593;28;11014;-71
2022/04/28 07:13:18;;;;;;;;;7.00;7.00;;;;;8.83;67.85;-18717.00;5000505;28;11313;-71
2022/04/28 07:15:53;;;;;;;;;4.75;4.00;;;;;8.73;66.30;-18714.13;5001330;28;10985;-71
2022/04/28 07:18:43;;;;;;;;;8.25;6.25;;;;;8.82;66.94;-18716.84;4977150;28;11414;-71
2022/04/28 07:21:10;;;;;;;;;10.00;8.00;;;;;8.85;66.40;-18717.75;5001826;28;10735;-71
2022/04/28 07:23:38;;;;;;;;;8.75;8.75;;;;;8.91;65.83;-18719.56;4986448;28;10636;-70
2022/04/28 07:26:07;;;;;;;;;8.00;8.00;;;;;8.75;65.90;-18714.72;4982037;28;10830;-71
2022/04/28 07:28:34;;;;;;;;;7.75;6.50;;;;;8.86;65.76;-18718.03;4999806;28;10901;-71
2022/04/28 07:31:03;;;;;;;;;9.00;7.50;;;;;8.85;65.86;-18717.75;5001430;28;10782;-72
2022/04/28 07:33:48;;;;;;;;;7.00;7.00;;;;;9.02;65.98;-18722.56;4982016;28;10925;-71
2022/04/28 07:36:33;;;;;;;;;4.50;4.00;;;;;9.06;66.00;-18723.94;4994747;28;10834;-71
2022/04/28 07:39:18;;;;;;;;;5.00;5.00;;;;;9.03;65.08;-18722.88;4998151;28;10569;-71
2022/04/28 07:42:05;;;;;;;;;9.00;9.00;;;;;9.03;65.68;-18722.88;4993172;28;10732;-71
2022/04/28 07:44:36;;;;;;;;;10.00;6.25;;;;;8.93;65.02;-18720.16;4989099;28;10933;-71
2022/04/28 07:47:04;;;;;;;;;6.75;6.75;;;;;9.12;65.00;-18725.59;4976841;28;12187;-71
2022/04/28 07:49:36;;;;;;;;;9.50;7.00;;;;;9.09;64.65;-18724.69;4998538;28;10808;-71
2022/04/28 07:52:04;;;;;;;;;5.00;5.00;;;;;9.15;64.96;-18726.66;4986401;28;10729;-71
2022/04/28 07:54:36;;;;;;;;;8.00;7.50;;;;;9.11;65.10;-18725.44;4999276;28;10662;-71
2022/04/28 07:57:03;;;;;;;;;6.75;6.75;;;;;9.20;65.18;-18728.16;4986747;28;10624;-71
2022/04/28 07:59:30;;;;;;;;;10.50;10.50;;;;;9.17;64.73;-18727.25;4984161;28;10777;-70
2022/04/28 08:02:09;;;;;;;;;9.00;6.00;;;;;9.15;63.62;-18726.50;5001130;28;13647;-70
2022/04/28 08:04:36;;;;;;;;;7.00;7.00;;;;;9.16;62.15;-18726.94;5000618;28;10719;-71
2022/04/28 08:07:03;;;;;;;;;2.25;2.25;;;;;9.09;59.89;-18724.69;4998575;28;10791;-71
2022/04/28 08:09:34;;;;;;;;;4.00;4.00;;;;;9.16;60.38;-18726.94;4983214;28;10476;-72
2022/04/28 08:12:06;;;;;;;;;7.50;6.75;;;;;9.19;60.00;-18727.72;5002403;28;10626;-70
2022/04/28 08:14:32;;;;;;;;;7.00;6.75;;;;;9.30;60.27;-18730.88;4985339;28;10786;-71
2022/04/28 08:17:00;;;;;;;;;5.75;5.25;;;;;9.45;59.62;-18735.41;4988404;28;10555;-71
2022/04/28 08:19:27;;;;;;;;;4.00;4.00;;;;;9.54;59.04;-18738.13;5008441;28;10756;-71
2022/04/28 08:22:03;;;;;;;;;4.75;4.75;;;;;9.54;58.31;-18738.13;4992414;28;10668;-70
2022/04/28 08:24:31;;;;;;;;;5.25;4.50;;;;;9.63;58.69;-18740.69;5015877;28;10554;-70
2022/04/28 08:26:57;;;;;;;;;5.50;4.00;;;;;9.84;58.59;-18747.19;4985716;28;10747;-70
2022/04/28 08:29:25;;;;;;;;;5.25;5.25;;;;;9.66;57.81;-18741.59;5020196;28;10596;-70
2022/04/28 08:31:58;;;;;;;;;8.00;3.25;;;;;9.68;58.08;-18742.19;4991572;28;10580;-70
2022/04/28 08:34:26;;;;;;;;;5.00;5.00;;;;;9.93;57.59;-18749.75;4991007;28;10529;-70
2022/04/28 08:36:53;;;;;;;;;4.50;4.50;;;;;9.89;57.53;-18748.53;5004663;28;10539;-71
2022/04/28 08:39:22;;;;;;;;;6.75;6.00;;;;;10.03;57.40;-18752.63;5004788;28;10366;-70
2022/04/28 08:41:49;;;;;;;;;6.50;6.50;;;;;9.73;57.78;-18743.88;5004333;28;10654;-71
2022/04/28 08:44:22;;;;;;;;;4.00;4.00;;;;;9.99;57.17;-18751.41;5007006;28;10582;-70
2022/04/28 08:46:58;;;;;;;;;4.00;4.00;;;;;10.06;56.87;-18753.66;4987353;28;10543;-70
2022/04/28 08:49:30;;;;;;;;;4.00;3.50;;;;;10.06;57.03;-18753.66;4989422;28;10491;-70
2022/04/28 08:52:20;;;;;;;;;8.00;7.25;;;;;10.17;56.65;-18757.00;5000946;28;10390;-69
2022/04/28 08:54:55;;;;;;;;;6.75;6.75;;;;;10.26;55.98;-18759.41;5004632;28;11308;-70
2022/04/28 08:57:24;;;;;;;;;5.75;5.25;;;;;10.14;55.17;-18755.94;4992098;28;10496;-69
2022/04/28 08:59:51;;;;;;;;;4.00;4.00;;;;;10.02;55.90;-18752.47;4989510;28;10412;-70
2022/04/28 09:02:33;;;;;;;;;4.50;4.50;;;;;9.85;56.34;-18747.47;5000884;28;10241;-70
2022/04/28 09:05:19;;;;;;;;;4.00;4.00;;;;;10.27;55.95;-18759.88;5002116;28;10484;-70
2022/04/28 09:08:18;;;;;;;;;6.75;5.00;;;;;10.37;55.58;-18762.72;4963458;28;10336;-69
2022/04/28 09:11:16;;;;;;;;;6.25;5.00;;;;;10.13;55.69;-18755.63;4975403;28;10425;-70
2022/04/28 09:14:17;;;;;;;;;7.50;5.75;;;;;10.13;55.74;-18755.63;4944253;28;10555;-69
2022/04/28 09:16:59;;;;;;;;;5.00;5.00;;;;;10.07;56.24;-18753.81;5003389;28;11186;-70
2022/04/28 09:19:35;;;;;;;;;4.25;4.25;;;;;10.26;55.67;-18759.41;4989952;28;10519;-69
2022/04/28 09:22:13;;;;;;;;;5.50;4.25;;;;;10.57;55.70;-18768.75;4990468;28;10449;-69
2022/04/28 09:24:44;;;;;;;;;7.75;7.75;;;;;10.71;55.55;-18772.84;4985621;28;10493;-70
2022/04/28 09:27:14;;;;;;;;;4.00;4.00;;;;;10.63;54.76;-18770.41;5002364;28;10489;-69
2022/04/28 09:29:43;;;;;;;;;4.75;4.00;;;;;10.42;55.63;-18764.25;4988640;28;10553;-70
2022/04/28 09:32:12;;;;;;;;;4.00;2.25;;;;;10.31;56.19;-18761.06;4993260;28;10427;-70
2022/04/28 09:35:18;;;;;;;;;5.50;5.50;;;;;10.64;56.02;-18770.88;5001557;28;10392;-70
2022/04/28 09:38:10;;;;;;;;;8.25;8.00;;;;;11.20;54.84;-18787.47;4980045;28;10319;-70
2022/04/28 09:43:44;;;;;;;;;6.25;5.50;;;;;11.99;51.44;-18811.00;4982558;28;10565;-70
2022/04/28 09:46:13;;;;;;;;;11.25;8.75;;;;;12.18;51.02;-18816.44;4985399;28;10340;-71
2022/04/28 09:48:42;;;;;;;;;8.00;5.25;;;;;12.59;50.17;-18828.63;4983926;28;10352;-71
2022/04/28 09:51:13;;;;;;;;;8.50;6.50;;;;;12.70;48.89;-18831.78;4991880;28;11039;-70
2022/04/28 09:54:07;;;;;;;;;7.25;7.25;;;;;12.22;50.30;-18817.63;4985761;28;10427;-71
2022/04/28 09:56:47;;;;;;;;;5.50;5.50;;;;;12.19;50.00;-18816.72;4984502;28;10300;-71
2022/04/28 09:59:19;;;;;;;;;5.00;5.00;;;;;12.63;49.52;-18829.97;4983569;28;10183;-70
2022/04/28 10:01:46;;;;;;;;;4.75;4.25;;;;;12.55;49.28;-18827.56;4982772;28;10089;-71
2022/04/28 10:04:13;;;;;;;;;9.25;8.00;;;;;12.18;49.79;-18816.44;4987218;28;9945;-71
2022/04/28 10:06:59;;;;;;;;;10.00;8.50;;;;;12.30;49.78;-18820.19;5003468;28;10410;-72
2022/04/28 10:09:29;;;;;;;;;8.00;8.00;;;;;12.57;49.24;-18828.03;4987117;28;10224;-71
2022/04/28 10:12:05;;;;;;;;;5.00;5.00;;;;;12.67;49.41;-18831.03;5003306;28;10126;-71
2022/04/28 10:14:47;;;;;;;;;7.00;6.00;;;;;12.88;48.60;-18837.22;4986807;28;9955;-72
2022/04/28 10:17:19;;;;;;;;;8.00;6.75;;;;;13.05;49.15;-18842.19;4985717;28;10947;-70
2022/04/28 10:19:52;;;;;;;;;6.00;6.00;;;;;12.80;48.47;-18834.81;4984580;28;10301;-71
2022/04/28 10:22:40;;;;;;;;;7.50;7.50;;;;;12.54;49.47;-18827.28;4985612;28;9932;-71
2022/04/28 10:34:14;;;;;;;;;10.00;7.50;;;;;12.80;49.72;-18834.81;4999866;28;10010;-71
2022/04/28 10:36:58;;;;;;;;;7.00;6.50;;;;;12.63;49.19;-18829.84;4999565;28;10187;-73
2022/04/28 10:39:33;;;;;;;;;6.75;6.00;;;;;13.04;48.62;-18842.03;5000222;28;9991;-70
2022/04/28 10:42:11;;;;;;;;;6.50;6.50;;;;;13.06;48.79;-18842.63;4986644;28;10176;-71
2022/04/28 10:44:40;;;;;;;;;10.00;9.25;;;;;12.51;49.27;-18826.22;4999232;28;9886;-69
2022/04/28 10:47:07;;;;;;;;;6.75;5.50;;;;;13.29;48.43;-18849.44;5001934;28;10029;-70
2022/04/28 10:49:39;;;;;;;;;10.25;10.00;;;;;13.08;48.51;-18843.25;5003854;28;9945;-70
2022/04/28 10:52:20;;;;;;;;;7.25;7.25;;;;;13.25;48.87;-18848.22;5001294;28;10160;-69
2022/04/28 10:54:51;;;;;;;;;10.00;9.00;;;;;13.20;48.34;-18846.88;4988035;28;9914;-70
2022/04/28 10:57:18;;;;;;;;;9.00;6.75;;;;;13.00;48.83;-18840.69;5001610;28;10136;-70
2022/04/28 10:59:49;;;;;;;;;6.75;6.75;;;;;13.74;48.35;-18862.69;5001389;28;9953;-69
2022/04/28 11:02:19;;;;;;;;;4.25;4.00;;;;;13.95;47.72;-18869.00;4993216;28;9873;-69
2022/04/28 11:05:00;;;;;;;;;6.00;6.00;;;;;13.91;48.18;-18867.66;4991732;28;9806;-71
2022/04/28 11:07:31;;;;;;;;;7.00;7.00;;;;;13.49;47.83;-18855.31;5005397;28;10026;-69
2022/04/28 11:10:00;;;;;;;;;6.75;6.75;;;;;13.15;49.13;-18845.34;4999263;28;9865;-70
2022/04/28 11:12:35;;;;;;;;;5.50;5.50;;;;;13.56;49.18;-18857.41;4985434;28;9941;-71
2022/04/28 11:15:12;;;;;;;;;7.75;7.00;;;;;13.37;49.47;-18851.84;4989703;28;10018;-70
2022/04/28 11:17:43;;;;;;;;;8.25;7.00;;;;;13.26;49.01;-18848.38;4986638;28;10046;-71
2022/04/28 11:20:15;;;;;;;;;7.75;7.00;;;;;13.27;49.73;-18848.81;4998083;28;10893;-70
2022/04/28 11:23:07;;;;;;;;;9.25;9.00;;;;;13.47;49.05;-18854.84;4998243;28;10083;-70
2022/04/28 11:25:35;;;;;;;;;6.25;6.25;;;;;13.34;50.47;-18850.78;4986168;28;9950;-70
2022/04/28 11:28:09;;;;;;;;;9.00;9.00;;;;;13.67;49.37;-18860.72;4970525;28;9780;-70
2022/04/28 11:30:41;;;;;;;;;9.75;9.25;;;;;13.60;50.07;-18858.47;4989501;28;9875;-70
2022/04/28 11:33:12;;;;;;;;;11.00;7.50;;;;;13.51;50.47;-18856.06;4983610;28;9927;-69
2022/04/28 11:35:40;;;;;;;;;10.25;8.75;;;;;13.25;51.70;-18848.22;5001495;28;9848;-70
2022/04/28 11:38:08;;;;;;;;;10.00;9.50;;;;;13.26;52.53;-18848.38;5000472;28;9963;-70
2022/04/28 11:40:42;;;;;;;;;7.00;5.75;;;;;13.28;52.57;-18848.97;5001225;28;10019;-70
2022/04/28 11:43:09;;;;;;;;;10.00;8.00;;;;;13.49;52.20;-18855.44;5002409;28;9766;-70
2022/04/28 11:45:37;;;;;;;;;8.25;7.00;;;;;13.61;51.09;-18858.91;5002495;28;10620;-70
2022/04/28 11:48:04;;;;;;;;;7.25;6.75;;;;;13.68;52.26;-18860.88;5001771;28;9905;-70
2022/04/28 11:50:34;;;;;;;;;9.00;8.75;;;;;13.66;51.01;-18860.28;4997286;28;9783;-70
2022/04/28 11:53:04;;;;;;;;;10.25;10.25;;;;;13.67;52.81;-18860.56;4985982;28;10032;-70
2022/04/28 11:55:34;;;;;;;;;4.50;4.00;;;;;14.12;50.99;-18873.97;5002958;28;10005;-71
2022/04/28 11:58:06;;;;;;;;;9.75;9.25;;;;;14.03;48.35;-18871.25;4990135;28;9727;-71
2022/04/28 12:00:41;;;;;;;;;8.75;8.00;;;;;13.54;48.93;-18856.81;4991196;28;9714;-70
2022/04/28 12:03:08;;;;;;;;;9.50;9.00;;;;;13.91;48.17;-18867.81;4984532;28;9742;-71
2022/04/28 12:05:36;;;;;;;;;10.75;10.75;;;;;14.12;50.07;-18874.13;5011883;28;9813;-71
2022/04/28 12:08:03;;;;;;;;;9.25;8.00;;;;;14.11;49.16;-18873.81;5009548;28;9951;-70
2022/04/28 12:16:18;;;;;;;;;13.25;11.75;;;;;13.37;51.17;-18851.84;5008023;28;9886;-73
2022/04/28 12:21:36;;;;;;;;;6.50;6.50;;;;;13.34;52.39;-18850.94;5005706;28;9804;-72
2022/04/28 12:24:15;;;;;;;;;12.00;9.75;;;;;13.51;51.66;-18855.91;4990481;28;9941;-72
2022/04/28 12:26:43;;;;;;;;;9.00;7.00;;;;;13.26;53.04;-18848.38;5006642;28;9859;-73
2022/04/28 12:29:13;;;;;;;;;8.75;8.75;;;;;13.49;53.42;-18855.44;4987661;28;9896;-73
2022/04/28 12:31:41;;;;;;;;;7.75;6.00;;;;;13.66;52.63;-18860.28;4975159;28;9883;-72
2022/04/28 12:34:19;;;;;;;;;8.50;8.50;;;;;13.84;52.99;-18865.69;5012923;28;9879;-69